createdAt,value
2024-01-24T00:01:35.702Z,100.00
2024-01-24T00:04:02.305Z,100.00
2024-01-24T00:06:29.088Z,100.00
2024-01-24T00:08:56.043Z,99.88
2024-01-24T00:11:22.726Z,100.00
2024-01-24T00:13:49.377Z,100.00
2024-01-24T00:16:16.182Z,100.00
2024-01-24T00:18:42.833Z,100.00
2024-01-24T00:21:09.429Z,100.00
2024-01-24T00:23:36.070Z,100.00
2024-01-24T00:26:02.801Z,100.00
2024-01-24T00:28:30.699Z,100.00
2024-01-24T00:30:57.610Z,100.00
2024-01-24T00:33:26.155Z,100.00
2024-01-24T00:35:52.705Z,100.00
2024-01-24T00:38:19.274Z,100.00
2024-01-24T00:40:45.784Z,100.00
2024-01-24T00:43:12.510Z,100.00
2024-01-24T00:45:39.081Z,100.00
2024-01-24T00:48:06.364Z,100.00
2024-01-24T00:50:33.307Z,100.00
2024-01-24T00:53:06.546Z,100.00
2024-01-24T00:55:33.432Z,100.00
2024-01-24T00:57:59.965Z,100.00
2024-01-24T01:00:26.573Z,100.00
2024-01-24T01:02:53.229Z,100.00
2024-01-24T01:05:19.860Z,100.00
2024-01-24T01:07:46.720Z,100.00
2024-01-24T01:10:13.309Z,100.00
2024-01-24T01:12:40.034Z,100.00
2024-01-24T01:15:07.128Z,100.00
2024-01-24T01:17:33.713Z,100.00
2024-01-24T01:20:00.257Z,100.00
2024-01-24T01:22:26.985Z,100.00
2024-01-24T01:24:53.574Z,100.00
2024-01-24T01:27:20.208Z,100.00
2024-01-24T01:29:46.755Z,100.00
2024-01-24T01:32:13.428Z,100.00
2024-01-24T01:34:40.157Z,100.00
2024-01-24T01:37:07.015Z,100.00
2024-01-24T01:39:33.989Z,100.00
2024-01-24T01:42:00.598Z,100.00
2024-01-24T01:44:27.512Z,100.00
2024-01-24T01:46:54.112Z,100.00
2024-01-24T01:49:21.366Z,100.00
2024-01-24T01:51:49.089Z,100.00
2024-01-24T01:54:16.453Z,100.00
2024-01-24T01:56:43.320Z,100.00
2024-01-24T01:59:10.409Z,100.00
2024-01-24T02:01:38.352Z,100.00
2024-01-24T02:04:05.534Z,100.00
2024-01-24T02:06:32.831Z,100.00
2024-01-24T02:08:59.555Z,100.00
2024-01-24T02:11:26.114Z,100.00
2024-01-24T02:13:58.519Z,100.00
2024-01-24T02:16:25.092Z,100.00
2024-01-24T02:18:51.782Z,100.00
2024-01-24T02:21:18.522Z,100.00
2024-01-24T02:23:45.779Z,100.00
2024-01-24T02:26:12.540Z,100.00
2024-01-24T02:28:39.346Z,100.00
2024-01-24T02:31:06.354Z,100.00
2024-01-24T02:33:32.967Z,100.00
2024-01-24T02:35:59.717Z,100.00
2024-01-24T02:38:26.260Z,100.00
2024-01-24T02:40:52.835Z,100.00
2024-01-24T02:43:19.379Z,100.00
2024-01-24T02:45:46.152Z,100.00
2024-01-24T02:48:12.861Z,100.00
2024-01-24T02:50:39.495Z,100.00
2024-01-24T02:53:06.055Z,100.00
2024-01-24T02:55:32.933Z,100.00
2024-01-24T02:57:59.513Z,100.00
2024-01-24T03:00:26.163Z,100.00
2024-01-24T03:02:52.724Z,100.00
2024-01-24T03:05:19.282Z,100.00
2024-01-24T03:07:45.824Z,100.00
2024-01-24T03:10:12.890Z,100.00
2024-01-24T03:12:39.418Z,100.00
2024-01-24T03:15:06.850Z,100.00
2024-01-24T03:17:33.577Z,100.00
2024-01-24T03:20:00.283Z,100.00
2024-01-24T03:22:26.882Z,100.00
2024-01-24T03:24:53.741Z,100.00
2024-01-24T03:27:20.633Z,100.00
2024-01-24T03:29:47.399Z,100.00
2024-01-24T03:32:14.022Z,100.00
2024-01-24T03:34:40.642Z,100.00
2024-01-24T03:37:07.691Z,100.00
2024-01-24T03:39:34.264Z,100.00
2024-01-24T03:42:01.045Z,100.00
2024-01-24T03:44:27.654Z,100.00
2024-01-24T03:46:54.194Z,100.00
2024-01-24T03:49:22.899Z,100.00
2024-01-24T03:51:49.667Z,100.00
2024-01-24T03:54:16.559Z,100.00
2024-01-24T03:56:43.323Z,100.00
2024-01-24T03:59:09.861Z,100.00
2024-01-24T04:01:36.813Z,100.00
2024-01-24T04:04:03.710Z,100.00
2024-01-24T04:06:30.505Z,100.00
2024-01-24T04:08:57.102Z,100.00
2024-01-24T04:11:23.829Z,100.00
2024-01-24T04:13:57.646Z,100.00
2024-01-24T04:16:24.468Z,100.00
2024-01-24T04:18:54.073Z,100.00
2024-01-24T04:21:20.864Z,100.00
2024-01-24T04:23:47.535Z,100.00
2024-01-24T04:26:14.082Z,100.00
2024-01-24T04:28:40.645Z,100.00
2024-01-24T04:31:07.311Z,100.00
2024-01-24T04:33:34.231Z,100.00
2024-01-24T04:36:01.211Z,100.00
2024-01-24T04:38:27.807Z,100.00
2024-01-24T04:40:54.444Z,100.00
2024-01-24T04:43:21.055Z,100.00
2024-01-24T04:45:47.797Z,100.00
2024-01-24T04:48:14.637Z,100.00
2024-01-24T04:50:41.446Z,100.00
2024-01-24T04:53:08.117Z,100.00
2024-01-24T04:55:34.629Z,100.00
2024-01-24T04:58:01.290Z,100.00
2024-01-24T05:00:28.146Z,100.00
2024-01-24T05:02:54.770Z,100.00
2024-01-24T05:05:21.347Z,100.00
2024-01-24T05:07:47.985Z,100.00
2024-01-24T05:10:15.489Z,100.00
2024-01-24T05:12:42.086Z,100.00
2024-01-24T05:15:09.692Z,100.00
2024-01-24T05:17:38.898Z,100.00
2024-01-24T05:20:07.185Z,100.00
2024-01-24T05:22:33.940Z,100.00
2024-01-24T05:25:00.605Z,100.00
2024-01-24T05:27:27.441Z,100.00
2024-01-24T05:29:54.022Z,100.00
2024-01-24T05:32:20.565Z,100.00
2024-01-24T05:34:47.240Z,100.00
2024-01-24T05:37:14.683Z,100.00
2024-01-24T05:39:43.069Z,100.00
2024-01-24T05:42:10.047Z,100.00
2024-01-24T05:44:36.726Z,100.00
2024-01-24T05:47:03.347Z,100.00
2024-01-24T05:49:30.036Z,100.00
2024-01-24T05:51:56.735Z,100.00
2024-01-24T05:54:23.486Z,100.00
2024-01-24T05:56:50.146Z,100.00
2024-01-24T05:59:16.976Z,100.00
2024-01-24T06:01:44.524Z,100.00
2024-01-24T06:04:11.672Z,100.00
2024-01-24T06:06:38.435Z,100.00
2024-01-24T06:09:05.171Z,100.00
2024-01-24T06:11:31.771Z,100.00
2024-01-24T06:13:58.599Z,100.00
2024-01-24T06:16:25.110Z,100.00
2024-01-24T06:18:51.911Z,100.00
2024-01-24T06:21:18.497Z,100.00
2024-01-24T06:23:45.093Z,100.00
2024-01-24T06:26:11.594Z,100.00
2024-01-24T06:28:38.506Z,100.00
2024-01-24T06:31:05.372Z,100.00
2024-01-24T06:33:32.309Z,100.00
2024-01-24T06:35:59.053Z,100.00
2024-01-24T06:38:25.769Z,100.00
2024-01-24T06:40:52.322Z,100.00
2024-01-24T06:43:20.093Z,100.00
2024-01-24T06:45:46.757Z,100.00
2024-01-24T06:48:13.455Z,100.00
2024-01-24T06:50:40.235Z,100.00
2024-01-24T06:53:12.081Z,100.00
2024-01-24T06:55:38.612Z,100.00
2024-01-24T06:58:07.227Z,100.00
2024-01-24T07:00:34.609Z,100.00
2024-01-24T07:03:01.632Z,100.00
2024-01-24T07:05:28.588Z,100.00
2024-01-24T07:07:55.233Z,100.00
2024-01-24T07:10:23.036Z,100.00
2024-01-24T07:12:49.697Z,100.00
2024-01-24T07:15:20.052Z,100.00
2024-01-24T07:17:47.427Z,100.00
2024-01-24T07:20:17.480Z,100.00
2024-01-24T07:22:44.606Z,100.00
2024-01-24T07:25:11.287Z,100.00
2024-01-24T07:27:37.887Z,100.00
2024-01-24T07:30:05.542Z,100.00
2024-01-24T07:32:32.601Z,100.00
2024-01-24T07:35:00.506Z,100.00
2024-01-24T07:37:27.273Z,100.00
2024-01-24T07:39:54.998Z,100.00
2024-01-24T07:42:21.674Z,100.00
2024-01-24T07:44:48.941Z,100.00
2024-01-24T07:47:20.022Z,100.00
2024-01-24T07:49:46.935Z,100.00
2024-01-24T07:52:19.167Z,100.00
2024-01-24T07:54:56.910Z,100.00
2024-01-24T07:57:23.898Z,100.00
2024-01-24T07:59:50.563Z,100.00
2024-01-24T08:02:17.919Z,100.00
2024-01-24T08:04:44.769Z,100.00
2024-01-24T08:07:11.484Z,100.00
2024-01-24T08:09:38.196Z,100.00
2024-01-24T08:12:04.964Z,100.00
2024-01-24T08:14:31.981Z,100.00
2024-01-24T08:17:06.774Z,100.00
2024-01-24T08:19:34.015Z,100.00
2024-01-24T08:22:01.345Z,100.00
2024-01-24T08:24:28.180Z,100.00
2024-01-24T08:26:54.892Z,100.00
2024-01-24T08:29:29.510Z,100.00
2024-01-24T08:31:59.707Z,100.00
2024-01-24T08:34:26.631Z,100.00
2024-01-24T08:36:53.253Z,100.00
2024-01-24T08:39:19.934Z,100.00
2024-01-24T08:41:46.486Z,100.00
2024-01-24T08:44:13.191Z,100.00
2024-01-24T08:46:39.724Z,100.00
2024-01-24T08:49:06.369Z,100.00
2024-01-24T08:51:33.152Z,100.00
2024-01-24T08:54:00.486Z,100.00
2024-01-24T08:56:27.980Z,100.00
2024-01-24T08:58:55.376Z,100.00
2024-01-24T09:01:22.394Z,100.00
2024-01-24T09:03:51.075Z,100.00
2024-01-24T09:06:20.088Z,100.00
2024-01-24T09:08:46.751Z,100.00
2024-01-24T09:11:14.071Z,98.94
2024-01-24T09:13:40.625Z,99.08
2024-01-24T09:16:07.610Z,99.43
2024-01-24T09:18:34.898Z,97.11
2024-01-24T09:21:02.599Z,95.50
2024-01-24T09:23:29.410Z,92.99
2024-01-24T09:25:56.418Z,92.17
2024-01-24T09:28:23.309Z,90.69
2024-01-24T09:30:50.565Z,90.40
2024-01-24T09:33:18.416Z,90.66
2024-01-24T09:35:48.179Z,90.99
2024-01-24T09:38:14.939Z,91.88
2024-01-24T09:40:42.980Z,92.19
2024-01-24T09:43:11.145Z,91.67
2024-01-24T09:45:40.222Z,89.68
2024-01-24T09:48:09.505Z,88.93
2024-01-24T09:50:36.361Z,88.03
2024-01-24T09:53:09.423Z,87.61
2024-01-24T09:55:36.612Z,85.15
2024-01-24T09:58:03.410Z,82.80
2024-01-24T10:00:30.047Z,79.93
2024-01-24T10:02:56.960Z,78.23
2024-01-24T10:05:26.383Z,76.82
2024-01-24T10:07:54.876Z,77.47
2024-01-24T10:10:21.615Z,75.76
2024-01-24T10:12:48.325Z,76.37
2024-01-24T10:15:14.951Z,74.86
2024-01-24T10:17:43.333Z,74.77
2024-01-24T10:20:12.984Z,74.37
2024-01-24T10:22:40.701Z,73.55
2024-01-24T10:25:10.874Z,72.25
2024-01-24T10:27:42.392Z,72.15
2024-01-24T10:30:13.939Z,71.92
2024-01-24T10:32:47.182Z,72.83
2024-01-24T10:35:15.951Z,73.00
2024-01-24T10:37:44.013Z,73.47
2024-01-24T10:40:15.911Z,72.97
2024-01-24T10:42:44.485Z,73.02
2024-01-24T10:45:11.700Z,72.82
2024-01-24T10:47:38.651Z,72.46
2024-01-24T10:50:11.318Z,70.66
2024-01-24T10:52:40.885Z,69.06
2024-01-24T10:55:12.459Z,69.08
2024-01-24T10:57:41.451Z,69.11
2024-01-24T11:00:12.053Z,69.19
2024-01-24T11:02:43.786Z,67.55
2024-01-24T11:05:33.066Z,67.31
2024-01-24T11:08:07.049Z,67.17
2024-01-24T11:10:42.306Z,66.39
2024-01-24T11:13:09.293Z,66.81
2024-01-24T11:15:36.355Z,67.07
2024-01-24T11:18:22.815Z,66.01
2024-01-24T11:20:54.580Z,66.33
2024-01-24T11:23:34.393Z,63.86
2024-01-24T11:26:01.037Z,65.22
2024-01-24T11:28:27.714Z,64.86
2024-01-24T11:30:54.319Z,65.85
2024-01-24T11:33:21.347Z,64.56
2024-01-24T11:35:49.114Z,63.87
2024-01-24T11:40:48.891Z,63.64
2024-01-24T11:43:31.739Z,64.46
2024-01-24T11:46:05.490Z,63.78
2024-01-24T11:48:34.524Z,63.61
2024-01-24T11:51:03.816Z,63.42
2024-01-24T11:53:32.078Z,64.29
2024-01-24T11:56:01.201Z,63.92
2024-01-24T11:58:28.409Z,62.99
2024-01-24T12:01:05.617Z,62.82
2024-01-24T12:03:33.097Z,62.35
2024-01-24T12:06:00.758Z,61.77
2024-01-24T12:08:28.357Z,61.44
2024-01-24T12:10:55.348Z,60.06
2024-01-24T12:13:25.208Z,59.74
2024-01-24T12:15:54.403Z,59.73
2024-01-24T12:18:21.569Z,59.45
2024-01-24T12:20:50.807Z,59.66
2024-01-24T12:23:19.328Z,59.47
2024-01-24T12:25:45.958Z,60.07
2024-01-24T12:28:13.760Z,61.21
2024-01-24T12:30:45.617Z,61.36
2024-01-24T12:33:15.630Z,61.44
2024-01-24T12:35:46.443Z,60.03
2024-01-24T12:38:13.474Z,60.75
2024-01-24T12:40:40.053Z,60.12
2024-01-24T12:43:06.758Z,60.91
2024-01-24T12:45:33.645Z,61.27
2024-01-24T12:48:00.389Z,61.91
2024-01-24T12:50:27.492Z,62.23
2024-01-24T12:52:54.249Z,62.48
2024-01-24T12:55:20.817Z,63.08
2024-01-24T12:57:47.479Z,64.14
2024-01-24T13:00:16.808Z,64.20
2024-01-24T13:02:43.586Z,63.37
2024-01-24T13:05:11.240Z,61.68
2024-01-24T13:07:38.473Z,61.32
2024-01-24T13:10:07.300Z,60.13
2024-01-24T13:12:35.088Z,59.92
2024-01-24T13:15:02.740Z,60.44
2024-01-24T13:17:29.446Z,59.70
2024-01-24T13:19:56.599Z,60.34
2024-01-24T13:22:23.406Z,61.15
2024-01-24T13:24:53.751Z,60.82
2024-01-24T13:27:22.202Z,61.14
2024-01-24T13:29:48.891Z,61.68
2024-01-24T13:32:16.152Z,62.44
2024-01-24T13:34:42.914Z,61.88
2024-01-24T13:37:10.315Z,62.76
2024-01-24T13:39:37.599Z,62.68
2024-01-24T13:42:05.096Z,63.16
2024-01-24T13:44:32.045Z,62.81
2024-01-24T13:46:58.880Z,62.62
2024-01-24T13:49:25.845Z,63.23
2024-01-24T13:51:52.696Z,63.43
2024-01-24T13:54:19.935Z,62.33
2024-01-24T13:56:48.421Z,62.45
2024-01-24T13:59:15.138Z,62.34
2024-01-24T14:01:45.764Z,61.66
2024-01-24T14:04:16.399Z,61.55
2024-01-24T14:06:45.225Z,61.96
2024-01-24T14:09:11.910Z,62.02
2024-01-24T14:11:41.288Z,61.58
2024-01-24T14:14:08.400Z,61.84
2024-01-24T14:16:35.892Z,61.99
2024-01-24T14:19:02.575Z,62.27
2024-01-24T14:21:30.454Z,61.73
2024-01-24T14:23:57.698Z,61.75
2024-01-24T14:26:28.466Z,61.81
2024-01-24T14:28:55.256Z,62.29
2024-01-24T14:31:21.826Z,62.56
2024-01-24T14:33:48.514Z,62.34
2024-01-24T14:36:15.318Z,61.66
2024-01-24T14:38:41.857Z,61.88
2024-01-24T14:41:08.880Z,61.79
2024-01-24T14:43:35.550Z,61.78
2024-01-24T14:46:02.583Z,60.87
2024-01-24T14:48:29.523Z,61.81
2024-01-24T14:50:56.133Z,61.49
2024-01-24T14:53:22.995Z,62.01
2024-01-24T14:55:49.542Z,61.87
2024-01-24T14:58:16.152Z,61.93
2024-01-24T15:00:42.898Z,61.71
2024-01-24T15:03:09.679Z,61.79
2024-01-24T15:05:36.359Z,61.28
2024-01-24T15:08:04.735Z,62.13
2024-01-24T15:10:31.341Z,61.73
2024-01-24T15:12:57.934Z,62.33
2024-01-24T15:15:24.606Z,62.61
2024-01-24T15:17:51.780Z,62.11
2024-01-24T15:20:19.855Z,62.36
2024-01-24T15:22:47.384Z,62.88
2024-01-24T15:25:14.086Z,62.61
2024-01-24T15:27:40.862Z,62.98
2024-01-24T15:30:08.238Z,63.17
2024-01-24T15:32:35.106Z,63.08
2024-01-24T15:35:02.043Z,63.32
2024-01-24T15:37:28.809Z,62.48
2024-01-24T15:39:55.597Z,62.23
2024-01-24T15:42:23.192Z,62.21
2024-01-24T15:44:50.092Z,61.67
2024-01-24T15:47:19.597Z,61.42
2024-01-24T15:49:46.289Z,61.11
2024-01-24T15:52:14.850Z,61.09
2024-01-24T15:54:43.617Z,61.38
2024-01-24T15:57:10.390Z,61.11
2024-01-24T15:59:37.248Z,61.13
2024-01-24T16:02:04.562Z,61.59
2024-01-24T16:04:34.670Z,61.56
2024-01-24T16:07:01.670Z,61.94
2024-01-24T16:09:29.174Z,62.25
2024-01-24T16:11:55.965Z,62.42
2024-01-24T16:14:27.049Z,62.21
2024-01-24T16:16:55.671Z,62.42
2024-01-24T16:19:23.016Z,62.25
2024-01-24T16:21:52.533Z,62.21
2024-01-24T16:24:19.348Z,62.24
2024-01-24T16:26:46.539Z,61.66
2024-01-24T16:29:13.232Z,61.77
2024-01-24T16:31:39.803Z,62.19
2024-01-24T16:34:06.955Z,62.04
2024-01-24T16:36:33.820Z,62.39
2024-01-24T16:39:00.517Z,62.18
2024-01-24T16:41:27.330Z,61.96
2024-01-24T16:43:53.948Z,62.11
2024-01-24T16:46:20.657Z,62.50
2024-01-24T16:48:47.372Z,62.08
2024-01-24T16:51:14.074Z,61.98
2024-01-24T16:53:41.504Z,61.95
2024-01-24T16:56:11.162Z,62.19
2024-01-24T16:58:37.840Z,61.92
2024-01-24T17:01:05.156Z,62.12
2024-01-24T17:03:32.064Z,62.61
2024-01-24T17:05:58.929Z,62.74
2024-01-24T17:08:25.661Z,62.76
2024-01-24T17:10:52.927Z,63.03
2024-01-24T17:13:21.798Z,63.01
2024-01-24T17:15:48.483Z,63.05
2024-01-24T17:18:15.048Z,62.84
2024-01-24T17:20:41.664Z,63.39
2024-01-24T17:23:08.253Z,63.44
2024-01-24T17:25:34.821Z,63.74
2024-01-24T17:28:01.477Z,63.73
2024-01-24T17:30:28.154Z,64.05
2024-01-24T17:32:54.848Z,63.68
2024-01-24T17:35:21.403Z,63.70
2024-01-24T17:37:48.166Z,63.74
2024-01-24T17:40:15.015Z,63.81
2024-01-24T17:42:41.651Z,64.04
2024-01-24T17:45:08.874Z,63.99
2024-01-24T17:47:36.434Z,64.17
2024-01-24T17:50:03.661Z,63.87
2024-01-24T17:52:32.645Z,63.98
2024-01-24T17:55:02.311Z,64.76
2024-01-24T17:57:29.432Z,64.87
2024-01-24T17:59:58.495Z,65.18
2024-01-24T18:02:25.180Z,65.12
2024-01-24T18:04:51.959Z,64.89
2024-01-24T18:07:20.597Z,65.01
2024-01-24T18:09:49.335Z,65.55
2024-01-24T18:12:17.048Z,65.61
2024-01-24T18:14:43.567Z,66.00
2024-01-24T18:17:10.415Z,66.40
2024-01-24T18:19:37.054Z,66.23
2024-01-24T18:22:03.936Z,66.15
2024-01-24T18:24:30.687Z,66.10
2024-01-24T18:26:57.284Z,66.80
2024-01-24T18:29:23.863Z,66.85
2024-01-24T18:31:51.386Z,67.03
2024-01-24T18:34:20.161Z,67.29
2024-01-24T18:36:46.948Z,67.30
2024-01-24T18:39:13.674Z,67.77
2024-01-24T18:41:40.218Z,68.36
2024-01-24T18:44:06.787Z,67.86
2024-01-24T18:46:33.807Z,68.10
2024-01-24T18:49:03.406Z,67.93
2024-01-24T18:51:31.277Z,68.21
2024-01-24T18:53:58.052Z,68.29
2024-01-24T18:56:25.240Z,69.02
2024-01-24T18:58:52.153Z,69.27
2024-01-24T19:01:20.184Z,69.55
2024-01-24T19:03:48.166Z,69.55
2024-01-24T19:06:14.800Z,70.41
2024-01-24T19:08:41.756Z,70.12
2024-01-24T19:11:09.301Z,70.17
2024-01-24T19:13:36.438Z,70.82
2024-01-24T19:16:03.974Z,71.05
2024-01-24T19:18:30.775Z,71.26
2024-01-24T19:20:57.774Z,72.07
2024-01-24T19:23:24.849Z,71.39
2024-01-24T19:25:51.463Z,71.72
2024-01-24T19:28:18.648Z,71.79
2024-01-24T19:30:45.432Z,71.76
2024-01-24T19:33:12.746Z,71.79
2024-01-24T19:35:41.178Z,71.45
2024-01-24T19:38:09.556Z,72.00
2024-01-24T19:40:36.215Z,71.84
2024-01-24T19:43:03.114Z,71.55
2024-01-24T19:45:31.451Z,71.92
2024-01-24T19:47:58.113Z,71.91
2024-01-24T19:50:24.878Z,71.60
2024-01-24T19:52:52.298Z,71.55
2024-01-24T19:55:19.192Z,71.56
2024-01-24T19:57:45.810Z,71.10
2024-01-24T20:00:13.732Z,71.42
2024-01-24T20:02:40.582Z,71.23
2024-01-24T20:05:08.173Z,71.71
2024-01-24T20:07:34.902Z,71.72
2024-01-24T20:10:01.568Z,71.49
2024-01-24T20:12:29.421Z,71.39
2024-01-24T20:14:56.369Z,71.42
2024-01-24T20:17:23.617Z,71.20
2024-01-24T20:19:51.225Z,71.40
2024-01-24T20:22:18.528Z,71.79
2024-01-24T20:24:45.912Z,71.73
2024-01-24T20:27:12.870Z,71.89
2024-01-24T20:29:39.638Z,71.64
2024-01-24T20:32:06.961Z,71.45
2024-01-24T20:34:33.700Z,71.81
2024-01-24T20:37:02.559Z,71.75
2024-01-24T20:39:29.497Z,71.44
2024-01-24T20:41:56.073Z,71.36
2024-01-24T20:44:22.662Z,71.49
2024-01-24T20:46:49.249Z,71.68
2024-01-24T20:49:16.448Z,71.31
2024-01-24T20:51:43.152Z,71.82
2024-01-24T20:54:09.826Z,71.50
2024-01-24T20:56:36.596Z,71.61
2024-01-24T20:59:03.335Z,71.28
2024-01-24T21:01:30.330Z,71.16
2024-01-24T21:03:57.346Z,71.11
2024-01-24T21:06:28.231Z,71.30
2024-01-24T21:08:55.563Z,71.25
2024-01-24T21:11:22.697Z,71.29
2024-01-24T21:13:49.381Z,71.76
2024-01-24T21:16:16.090Z,71.69
2024-01-24T21:18:44.047Z,71.98
2024-01-24T21:21:11.716Z,71.93
2024-01-24T21:23:38.581Z,71.85
2024-01-24T21:26:05.203Z,72.19
2024-01-24T21:28:31.770Z,72.49
2024-01-24T21:30:58.959Z,73.06
2024-01-24T21:33:25.638Z,73.07
2024-01-24T21:35:53.851Z,73.77
2024-01-24T21:38:20.688Z,73.61
2024-01-24T21:40:47.354Z,74.12
2024-01-24T21:43:14.104Z,74.86
2024-01-24T21:45:41.882Z,74.58
2024-01-24T21:48:08.733Z,75.29
2024-01-24T21:50:35.316Z,75.61
2024-01-24T21:53:01.964Z,75.83
2024-01-24T21:55:28.614Z,76.12
2024-01-24T21:57:55.271Z,75.67
2024-01-24T22:00:21.968Z,76.29
2024-01-24T22:02:48.854Z,76.48
2024-01-24T22:05:17.847Z,76.32
2024-01-24T22:07:47.162Z,76.52
2024-01-24T22:10:13.910Z,76.77
2024-01-24T22:12:41.018Z,77.12
2024-01-24T22:15:09.376Z,76.88
2024-01-24T22:17:36.009Z,77.49
2024-01-24T22:20:03.330Z,77.53
2024-01-24T22:22:30.006Z,77.76
2024-01-24T22:24:56.664Z,78.00
2024-01-24T22:27:23.280Z,77.74
2024-01-24T22:29:49.854Z,78.09
2024-01-24T22:32:16.597Z,77.77
2024-01-24T22:34:43.259Z,78.14
2024-01-24T22:37:10.529Z,78.21
2024-01-24T22:39:37.220Z,77.78
2024-01-24T22:42:03.919Z,77.96
2024-01-24T22:44:30.495Z,77.84
2024-01-24T22:46:57.119Z,79.00
2024-01-24T22:49:23.832Z,78.60
2024-01-24T22:51:50.428Z,78.19
2024-01-24T22:54:17.284Z,78.93
2024-01-24T22:56:43.843Z,79.01
2024-01-24T22:59:10.468Z,79.02
2024-01-24T23:01:37.175Z,78.67
2024-01-24T23:04:03.942Z,78.57
2024-01-24T23:06:31.729Z,78.99
2024-01-24T23:08:58.344Z,79.10
2024-01-24T23:11:24.969Z,78.64
2024-01-24T23:13:51.843Z,78.72
2024-01-24T23:16:18.598Z,78.40
2024-01-24T23:18:45.198Z,79.07
2024-01-24T23:21:11.919Z,79.12
2024-01-24T23:23:38.726Z,79.08
2024-01-24T23:26:05.316Z,78.57
2024-01-24T23:28:32.032Z,78.46
2024-01-24T23:30:58.625Z,78.15
2024-01-24T23:33:25.893Z,78.11
2024-01-24T23:35:52.611Z,78.55
2024-01-24T23:38:20.295Z,78.28
2024-01-24T23:40:46.854Z,77.56
2024-01-24T23:43:13.540Z,77.67
2024-01-24T23:45:40.179Z,77.95
2024-01-24T23:48:07.453Z,77.70
2024-01-24T23:50:34.452Z,77.64
2024-01-24T23:53:01.571Z,76.93
2024-01-24T23:55:28.233Z,77.08
2024-01-24T23:57:55.060Z,77.49
